createdAt,value
2023-04-12T00:01:55.010Z,0.90
2023-04-12T00:04:27.423Z,2.67
2023-04-12T00:07:01.014Z,1.20
2023-04-12T00:09:30.738Z,1.50
2023-04-12T00:11:59.467Z,1.00
2023-04-12T00:14:27.526Z,1.40
2023-04-12T00:16:55.549Z,1.13
2023-04-12T00:19:25.790Z,1.23
2023-04-12T00:21:53.763Z,1.33
2023-04-12T00:24:21.712Z,1.17
2023-04-12T00:26:51.016Z,1.10
2023-04-12T00:29:19.103Z,1.37
2023-04-12T00:31:47.149Z,1.33
2023-04-12T00:34:15.711Z,0.90
2023-04-12T00:36:43.706Z,1.40
2023-04-12T00:39:12.034Z,1.23
2023-04-12T00:41:39.999Z,1.07
2023-04-12T00:44:09.990Z,1.50
2023-04-12T00:46:39.000Z,1.30
2023-04-12T00:49:08.239Z,1.40
2023-04-12T00:51:37.853Z,1.03
2023-04-12T00:54:07.186Z,1.20
2023-04-12T00:56:35.476Z,1.50
2023-04-12T00:59:03.805Z,1.40
2023-04-12T01:01:33.131Z,1.87
2023-04-12T01:04:04.561Z,1.23
2023-04-12T01:06:49.016Z,1.00
2023-04-12T01:09:30.192Z,1.30
2023-04-12T01:12:15.605Z,1.20
2023-04-12T01:14:49.143Z,1.00
2023-04-12T01:17:25.022Z,1.43
2023-04-12T01:19:59.023Z,1.00
2023-04-12T01:22:49.412Z,1.20
2023-04-12T01:25:34.228Z,1.40
2023-04-12T01:28:05.524Z,1.40
2023-04-12T01:30:34.506Z,1.40
2023-04-12T01:33:06.610Z,0.90
2023-04-12T01:35:35.749Z,1.30
2023-04-12T01:38:05.103Z,2.17
2023-04-12T01:40:33.205Z,1.30
2023-04-12T01:43:10.102Z,0.90
2023-04-12T01:45:38.877Z,1.00
2023-04-12T01:48:10.789Z,2.50
2023-04-12T01:50:45.920Z,0.80
2023-04-12T01:53:16.720Z,1.20
2023-04-12T01:55:46.764Z,0.83
2023-04-12T01:58:18.243Z,1.50
2023-04-12T02:00:47.110Z,1.70
2023-04-12T02:03:15.575Z,1.10
2023-04-12T02:05:43.965Z,1.60
2023-04-12T02:08:12.908Z,1.10
2023-04-12T02:10:41.097Z,1.07
2023-04-12T02:13:09.031Z,1.17
2023-04-12T02:15:38.497Z,1.07
2023-04-12T02:18:07.477Z,1.40
2023-04-12T02:20:35.824Z,1.63
2023-04-12T02:23:03.806Z,0.80
2023-04-12T02:25:33.327Z,1.37
2023-04-12T02:28:01.903Z,1.03
2023-04-12T02:30:30.078Z,0.80
2023-04-12T02:32:59.440Z,1.30
2023-04-12T02:35:32.726Z,1.20
2023-04-12T02:38:08.188Z,1.00
2023-04-12T02:40:40.861Z,1.20
2023-04-12T02:43:10.176Z,0.80
2023-04-12T02:45:43.080Z,1.67
2023-04-12T02:48:13.203Z,1.03
2023-04-12T02:50:41.495Z,1.27
2023-04-12T02:53:17.211Z,1.27
2023-04-12T02:55:49.493Z,1.10
2023-04-12T02:58:22.631Z,1.30
2023-04-12T03:00:52.492Z,1.03
2023-04-12T03:03:31.965Z,0.90
2023-04-12T03:06:06.400Z,0.80
2023-04-12T03:08:36.040Z,0.60
2023-04-12T03:11:04.040Z,1.10
2023-04-12T03:13:31.976Z,0.80
2023-04-12T03:16:01.068Z,1.40
2023-04-12T03:18:36.740Z,0.90
2023-04-12T03:21:05.578Z,1.50
2023-04-12T03:23:33.595Z,0.97
2023-04-12T03:26:15.379Z,1.00
2023-04-12T03:29:01.766Z,0.70
2023-04-12T03:31:32.961Z,0.70
2023-04-12T03:34:08.195Z,0.90
2023-04-12T03:36:39.045Z,1.33
2023-04-12T03:39:14.975Z,0.80
2023-04-12T03:41:44.023Z,0.87
2023-04-12T03:44:13.003Z,0.60
2023-04-12T03:46:41.563Z,1.27
2023-04-12T03:49:13.352Z,0.90
2023-04-12T03:51:43.145Z,0.83
2023-04-12T03:54:11.763Z,0.90
2023-04-12T03:56:50.451Z,0.80
2023-04-12T03:59:25.905Z,1.20
2023-04-12T04:01:54.192Z,1.13
2023-04-12T04:04:25.153Z,0.90
2023-04-12T04:06:57.498Z,0.90
2023-04-12T04:09:27.033Z,1.00
2023-04-12T04:11:54.968Z,1.40
2023-04-12T04:14:27.698Z,0.93
2023-04-12T04:16:56.230Z,1.13
2023-04-12T04:19:28.718Z,1.00
2023-04-12T04:21:57.005Z,1.50
2023-04-12T04:24:25.114Z,0.97
2023-04-12T04:26:55.873Z,1.20
2023-04-12T04:29:29.141Z,0.90
2023-04-12T04:31:58.628Z,1.30
2023-04-12T04:34:29.343Z,0.97
2023-04-12T04:37:07.671Z,1.30
2023-04-12T04:39:36.266Z,1.17
2023-04-12T04:42:06.592Z,1.23
2023-04-12T04:44:40.360Z,1.10
2023-04-12T04:47:10.936Z,1.00
2023-04-12T04:49:41.223Z,1.33
2023-04-12T04:52:22.556Z,1.80
2023-04-12T04:54:51.245Z,1.07
2023-04-12T04:57:21.024Z,1.20
2023-04-12T04:59:49.404Z,1.07
2023-04-12T05:02:18.799Z,2.40
2023-04-12T05:04:48.129Z,1.87
2023-04-12T05:07:19.706Z,1.40
2023-04-12T05:09:49.454Z,1.03
2023-04-12T05:12:19.782Z,1.83
2023-04-12T05:14:52.197Z,1.30
2023-04-12T05:17:20.968Z,1.50
2023-04-12T05:19:50.414Z,1.90
2023-04-12T05:22:20.491Z,1.30
2023-04-12T05:24:48.604Z,1.50
2023-04-12T05:27:17.246Z,1.50
2023-04-12T05:29:47.246Z,1.40
2023-04-12T05:32:17.510Z,1.60
2023-04-12T05:34:45.547Z,1.70
2023-04-12T05:37:15.369Z,1.40
2023-04-12T05:39:44.072Z,1.47
2023-04-12T05:42:13.532Z,1.60
2023-04-12T05:44:44.812Z,2.10
2023-04-12T05:47:15.493Z,1.30
2023-04-12T05:49:43.556Z,1.20
2023-04-12T05:52:14.223Z,1.37
2023-04-12T05:54:42.969Z,1.50
2023-04-12T05:57:17.591Z,1.10
2023-04-12T05:59:48.709Z,0.90
2023-04-12T06:02:16.833Z,1.20
2023-04-12T06:04:50.764Z,1.60
2023-04-12T06:07:22.077Z,1.60
2023-04-12T06:09:50.184Z,2.07
2023-04-12T06:12:18.991Z,1.97
2023-04-12T06:14:47.838Z,1.30
2023-04-12T06:17:16.027Z,1.80
2023-04-12T06:19:44.901Z,3.13
2023-04-12T06:22:12.867Z,2.13
2023-04-12T06:24:43.647Z,1.60
2023-04-12T06:27:12.882Z,1.07
2023-04-12T06:29:41.028Z,1.40
2023-04-12T06:32:09.056Z,2.13
2023-04-12T06:34:37.601Z,1.90
2023-04-12T06:37:10.881Z,1.10
2023-04-12T06:39:38.832Z,1.37
2023-04-12T06:42:08.184Z,1.33
2023-04-12T06:44:39.898Z,2.33
2023-04-12T06:47:08.058Z,2.00
2023-04-12T06:49:36.228Z,3.13
2023-04-12T06:52:04.234Z,1.70
2023-04-12T06:54:32.225Z,2.10
2023-04-12T06:57:01.647Z,1.93
2023-04-12T06:59:31.221Z,2.20
2023-04-12T07:01:59.304Z,1.47
2023-04-12T07:04:27.267Z,1.63
2023-04-12T07:06:55.210Z,1.90
2023-04-12T07:09:23.161Z,2.60
2023-04-12T07:11:51.392Z,2.00
2023-04-12T07:14:19.322Z,1.93
2023-04-12T07:16:48.984Z,2.03
2023-04-12T07:19:17.435Z,1.90
2023-04-12T07:21:45.375Z,2.47
2023-04-12T07:24:13.468Z,2.10
2023-04-12T07:26:41.386Z,1.73
2023-04-12T07:29:09.342Z,2.43
2023-04-12T07:31:37.268Z,2.10
2023-04-12T07:34:06.621Z,2.47
2023-04-12T07:36:34.632Z,2.13
2023-04-12T07:39:02.538Z,2.63
2023-04-12T07:41:30.610Z,2.63
2023-04-12T07:43:58.600Z,2.70
2023-04-12T07:46:26.675Z,2.93
2023-04-12T07:48:54.775Z,2.50
2023-04-12T07:51:24.081Z,2.70
2023-04-12T07:53:52.040Z,2.83
2023-04-12T07:56:19.988Z,2.17
2023-04-12T07:58:47.946Z,3.07
2023-04-12T08:01:16.955Z,3.63
2023-04-12T08:03:45.005Z,2.43
2023-04-12T08:06:13.608Z,2.73
2023-04-12T08:08:42.947Z,3.40
2023-04-12T08:11:10.891Z,2.33
2023-04-12T08:13:38.851Z,2.97
2023-04-12T08:16:08.430Z,2.00
2023-04-12T08:18:36.465Z,2.70
2023-04-12T08:21:04.845Z,3.13
2023-04-12T08:23:32.820Z,3.50
2023-04-12T08:26:04.548Z,2.87
2023-04-12T08:28:33.500Z,2.93
2023-04-12T08:31:01.771Z,2.90
2023-04-12T08:33:29.814Z,2.70
2023-04-12T08:35:57.796Z,3.70
2023-04-12T08:38:41.467Z,2.57
2023-04-12T08:41:14.821Z,3.30
2023-04-12T08:43:46.191Z,3.03
2023-04-12T08:46:16.609Z,2.80
2023-04-12T08:48:49.064Z,3.20
2023-04-12T08:51:18.900Z,4.13
2023-04-12T08:53:46.964Z,2.60
2023-04-12T08:56:17.437Z,2.20
2023-04-12T08:58:48.947Z,2.47
2023-04-12T09:01:18.955Z,1.90
2023-04-12T09:03:47.398Z,1.40
2023-04-12T09:06:15.647Z,2.00
2023-04-12T09:08:54.596Z,2.73
2023-04-12T09:11:25.738Z,2.30
2023-04-12T09:13:54.452Z,3.03
2023-04-12T09:16:42.443Z,3.17
2023-04-12T09:19:10.632Z,2.30
2023-04-12T09:21:52.308Z,2.30
2023-04-12T09:24:24.036Z,1.93
2023-04-12T09:27:03.750Z,1.60
2023-04-12T09:29:32.186Z,1.70
2023-04-12T09:32:02.994Z,1.53
2023-04-12T09:34:31.429Z,1.10
2023-04-12T09:36:59.822Z,1.50
2023-04-12T09:39:34.536Z,1.40
2023-04-12T09:42:18.074Z,1.30
2023-04-12T09:44:55.997Z,1.30
2023-04-12T09:47:24.966Z,1.27
2023-04-12T09:49:53.065Z,1.57
2023-04-12T09:52:21.291Z,1.50
2023-04-12T09:54:49.761Z,1.50
2023-04-12T09:57:21.517Z,1.40
2023-04-12T09:59:52.190Z,1.57
2023-04-12T10:02:24.410Z,1.23
2023-04-12T10:04:53.850Z,1.50
2023-04-12T10:07:22.570Z,1.47
2023-04-12T10:09:50.731Z,1.40
2023-04-12T10:12:20.428Z,1.37
2023-04-12T10:14:49.086Z,1.20
2023-04-12T10:17:20.037Z,1.20
2023-04-12T10:19:49.526Z,1.40
2023-04-12T10:22:19.340Z,1.43
2023-04-12T10:24:48.120Z,1.50
2023-04-12T10:27:28.151Z,1.87
2023-04-12T10:30:16.273Z,1.50
2023-04-12T10:32:44.655Z,1.33
2023-04-12T10:35:12.728Z,1.60
2023-04-12T10:38:00.165Z,2.00
2023-04-12T10:40:28.506Z,1.40
2023-04-12T10:43:28.994Z,1.20
2023-04-12T10:45:58.867Z,1.20
2023-04-12T10:48:34.303Z,1.77
2023-04-12T10:51:23.090Z,1.63
2023-04-12T10:53:52.234Z,1.30
2023-04-12T10:56:45.886Z,1.63
2023-04-12T10:59:34.198Z,1.50
2023-04-12T11:02:11.662Z,2.00
2023-04-12T11:05:08.968Z,1.23
2023-04-12T11:07:54.659Z,1.33
2023-04-12T11:11:01.484Z,1.30
2023-04-12T11:13:36.993Z,1.03
2023-04-12T11:16:07.640Z,1.40
2023-04-12T11:18:36.128Z,1.07
2023-04-12T11:21:05.307Z,1.30
2023-04-12T11:23:33.709Z,1.37
2023-04-12T11:26:03.885Z,0.90
2023-04-12T11:28:33.888Z,1.40
2023-04-12T11:31:04.706Z,1.20
2023-04-12T11:33:35.924Z,1.97
2023-04-12T11:36:07.470Z,1.20
2023-04-12T11:38:37.967Z,1.70
2023-04-12T11:41:09.006Z,1.53
2023-04-12T11:43:38.609Z,1.87
2023-04-12T11:46:07.370Z,1.40
2023-04-12T11:48:38.520Z,1.73
2023-04-12T11:51:20.676Z,1.43
2023-04-12T11:53:54.034Z,1.60
2023-04-12T11:56:22.280Z,1.40
2023-04-12T11:58:50.332Z,1.13
2023-04-12T12:01:23.249Z,1.30
2023-04-12T12:03:55.574Z,1.73
2023-04-12T12:06:27.535Z,6.23
2023-04-12T12:08:56.994Z,1.80
2023-04-12T12:11:26.690Z,1.80
2023-04-12T12:13:56.345Z,1.37
2023-04-12T12:16:28.952Z,1.63
2023-04-12T12:18:58.742Z,1.60
2023-04-12T12:21:27.670Z,2.23
2023-04-12T12:23:58.506Z,2.20
2023-04-12T12:26:28.065Z,2.20
2023-04-12T12:28:57.776Z,1.90
2023-04-12T12:31:27.833Z,2.43
2023-04-12T12:33:58.991Z,2.30
2023-04-12T12:36:33.386Z,2.20
2023-04-12T12:39:07.325Z,2.23
2023-04-12T12:41:35.715Z,3.07
2023-04-12T12:44:03.944Z,2.00
2023-04-12T12:46:50.710Z,2.00
2023-04-12T12:49:21.358Z,1.60
2023-04-12T12:51:49.365Z,2.30
2023-04-12T12:54:32.168Z,2.00
2023-04-12T12:57:06.498Z,1.63
2023-04-12T12:59:34.481Z,1.50
2023-04-12T13:02:02.610Z,1.63
2023-04-12T13:04:32.111Z,1.73
2023-04-12T13:07:00.141Z,1.43
2023-04-12T13:09:28.086Z,1.50
2023-04-12T13:27:16.672Z,1.20
2023-04-12T13:29:44.940Z,1.27
2023-04-12T13:32:13.873Z,1.30
2023-04-12T13:34:41.893Z,1.40
2023-04-12T13:37:09.899Z,1.33
2023-04-12T13:39:40.057Z,1.63
2023-04-12T13:42:08.357Z,1.30
2023-04-12T13:44:37.788Z,1.37
2023-04-12T13:47:05.893Z,1.00
2023-04-12T13:49:33.902Z,1.53
2023-04-12T13:52:03.303Z,1.10
2023-04-12T13:54:31.638Z,1.33
2023-04-12T13:56:59.665Z,1.20
2023-04-12T13:59:27.825Z,1.60
2023-04-12T14:01:57.377Z,1.20
2023-04-12T14:04:28.496Z,1.10
2023-04-12T14:06:57.087Z,1.40
2023-04-12T14:09:26.022Z,1.40
2023-04-12T14:11:56.073Z,2.10
2023-04-12T14:14:24.173Z,1.30
2023-04-12T14:16:53.670Z,1.50
2023-04-12T14:19:23.120Z,1.67
2023-04-12T14:21:51.769Z,1.67
2023-04-12T14:24:21.067Z,2.07
2023-04-12T14:26:50.378Z,1.80
2023-04-12T14:29:18.480Z,2.20
2023-04-12T14:31:46.464Z,1.30
2023-04-12T14:34:14.457Z,1.13
2023-04-12T14:36:43.796Z,1.23
2023-04-12T14:39:13.342Z,2.20
2023-04-12T14:41:42.970Z,1.40
2023-04-12T14:44:10.942Z,1.20
2023-04-12T14:46:39.635Z,0.87
2023-04-12T14:52:34.516Z,0.80
2023-04-12T14:55:04.034Z,0.80
2023-04-12T14:57:32.764Z,0.87
2023-04-12T15:00:01.263Z,0.90
2023-04-12T15:02:29.624Z,0.70
2023-04-12T15:04:58.996Z,1.10
2023-04-12T15:07:27.086Z,1.07
2023-04-12T15:09:57.883Z,0.90
2023-04-12T15:12:27.894Z,0.80
2023-04-12T15:14:57.564Z,1.03
2023-04-12T15:17:25.573Z,1.00
2023-04-12T15:19:53.656Z,0.90
2023-04-12T15:22:22.511Z,0.93
2023-04-12T15:24:50.770Z,0.90
2023-04-12T15:27:18.739Z,0.80
2023-04-12T15:29:48.159Z,1.00
2023-04-12T15:32:16.368Z,0.80
2023-04-12T15:34:44.926Z,0.83
2023-04-12T15:37:14.854Z,1.10
2023-04-12T15:39:42.882Z,1.13
2023-04-12T15:42:10.958Z,0.70
2023-04-12T15:44:38.937Z,1.10
2023-04-12T15:47:11.632Z,0.80
2023-04-12T15:49:40.172Z,0.83
2023-04-12T15:52:11.270Z,1.50
2023-04-12T15:54:43.585Z,1.10
2023-04-12T15:57:12.143Z,1.10
2023-04-12T15:59:41.861Z,1.10
2023-04-12T16:02:11.506Z,1.10
2023-04-12T16:04:40.506Z,1.10
2023-04-12T16:07:08.970Z,0.97
2023-04-12T16:09:39.549Z,1.20
2023-04-12T16:12:07.972Z,1.00
2023-04-12T16:14:36.740Z,1.07
2023-04-12T16:17:04.706Z,0.90
2023-04-12T16:19:34.057Z,0.80
2023-04-12T16:22:02.105Z,0.80
2023-04-12T16:24:30.061Z,0.93
2023-04-12T16:26:59.186Z,0.80
2023-04-12T16:29:27.159Z,0.80
2023-04-12T16:31:55.162Z,1.00
2023-04-12T16:34:23.250Z,1.20
2023-04-12T16:36:52.922Z,1.20
2023-04-12T16:39:20.859Z,0.80
2023-04-12T16:41:48.772Z,0.77
2023-04-12T16:44:18.933Z,0.70
2023-04-12T16:46:47.808Z,0.80
2023-04-12T16:49:19.052Z,0.70
2023-04-12T16:51:47.675Z,0.70
2023-04-12T16:54:17.066Z,0.80
2023-04-12T16:56:45.067Z,0.80
2023-04-12T16:59:13.418Z,0.80
2023-04-12T17:01:41.421Z,0.80
2023-04-12T17:04:09.544Z,0.90
2023-04-12T17:06:39.135Z,0.93
2023-04-12T17:09:08.587Z,1.00
2023-04-12T17:11:37.942Z,0.93
2023-04-12T17:14:05.882Z,0.80
2023-04-12T17:16:34.089Z,0.70
2023-04-12T17:19:02.146Z,0.77
2023-04-12T17:21:30.685Z,0.70
2023-04-12T17:23:58.917Z,0.73
2023-04-12T17:26:27.841Z,1.07
2023-04-12T17:28:58.786Z,0.60
2023-04-12T17:31:27.711Z,0.73
2023-04-12T17:33:56.161Z,0.80
2023-04-12T17:36:24.326Z,0.70
2023-04-12T17:38:52.434Z,0.70
2023-04-12T17:41:21.430Z,0.70
2023-04-12T17:43:49.461Z,0.80
2023-04-12T17:46:18.840Z,0.73
2023-04-12T17:48:46.857Z,0.80
2023-04-12T17:51:16.080Z,0.70
2023-04-12T17:53:44.103Z,0.80
2023-04-12T17:56:12.131Z,0.77
2023-04-12T17:58:40.059Z,0.70
2023-04-12T18:01:08.043Z,0.70
2023-04-12T18:03:37.627Z,0.70
2023-04-12T18:06:06.508Z,1.13
2023-04-12T18:08:37.433Z,1.00
2023-04-12T18:11:07.541Z,1.10
2023-04-12T18:13:35.507Z,0.90
2023-04-12T18:16:04.020Z,1.07
2023-04-12T18:18:31.986Z,0.73
2023-04-12T18:21:04.239Z,1.00
2023-04-12T18:23:32.270Z,0.93
2023-04-12T18:26:00.368Z,1.00
2023-04-12T18:28:31.305Z,1.00
2023-04-12T18:30:59.846Z,1.70
2023-04-12T18:33:30.232Z,1.10
2023-04-12T18:35:58.261Z,1.20
2023-04-12T18:38:33.518Z,1.10
2023-04-12T18:41:01.474Z,1.53
2023-04-12T18:43:29.463Z,1.10
2023-04-12T18:45:57.464Z,1.20
2023-04-12T18:48:27.110Z,1.30
2023-04-12T18:50:57.398Z,1.10
2023-04-12T18:53:26.713Z,1.20
2023-04-12T18:55:55.025Z,1.30
2023-04-12T18:58:23.740Z,1.17
2023-04-12T19:00:54.698Z,1.30
2023-04-12T19:03:22.807Z,1.13
2023-04-12T19:05:50.869Z,1.00
2023-04-12T19:08:18.809Z,1.33
2023-04-12T19:10:48.170Z,1.30
2023-04-12T19:13:16.145Z,1.10
2023-04-12T19:15:44.124Z,0.93
2023-04-12T19:18:12.417Z,1.40
2023-04-12T19:20:40.633Z,1.00
2023-04-12T19:23:09.293Z,1.10
2023-04-12T19:25:37.323Z,1.20
2023-04-12T19:28:07.440Z,1.10
2023-04-12T19:30:35.578Z,1.20
2023-04-12T19:33:03.587Z,1.40
2023-04-12T19:35:32.899Z,1.27
2023-04-12T19:38:00.988Z,1.20
2023-04-12T19:40:30.905Z,1.27
2023-04-12T19:42:59.196Z,1.33
2023-04-12T19:45:28.863Z,1.70
2023-04-12T19:47:57.042Z,2.60
2023-04-12T19:50:25.042Z,1.30
2023-04-12T19:52:53.193Z,1.40
2023-04-12T19:55:21.404Z,1.63
2023-04-12T19:57:49.423Z,1.50
2023-04-12T20:00:20.665Z,1.30
2023-04-12T20:02:51.799Z,1.30
2023-04-12T20:05:22.241Z,0.93
2023-04-12T20:07:52.511Z,1.20
2023-04-12T20:10:20.700Z,1.33
2023-04-12T20:12:48.704Z,1.10
2023-04-12T20:15:17.603Z,0.93
2023-04-12T20:17:45.825Z,0.90
2023-04-12T20:20:15.450Z,1.03
2023-04-12T20:22:45.867Z,2.13
2023-04-12T20:25:14.576Z,0.93
2023-04-12T20:27:43.870Z,0.90
2023-04-12T20:30:16.714Z,0.80
2023-04-12T20:32:44.765Z,0.60
2023-04-12T20:35:14.083Z,0.80
2023-04-12T20:37:43.443Z,1.13
2023-04-12T20:40:12.462Z,0.80
2023-04-12T20:42:42.363Z,1.00
2023-04-12T20:45:11.544Z,0.83
2023-04-12T20:47:39.613Z,0.80
2023-04-12T20:50:08.268Z,1.00
2023-04-12T20:52:36.431Z,1.20
2023-04-12T20:55:07.272Z,1.10
2023-04-12T20:57:35.894Z,1.50
2023-04-12T21:00:12.413Z,1.00
2023-04-12T21:02:40.579Z,0.90
2023-04-12T21:05:11.640Z,1.00
2023-04-12T21:07:41.178Z,1.20
2023-04-12T21:10:13.290Z,1.70
2023-04-12T21:12:42.606Z,1.00
2023-04-12T21:15:12.429Z,1.23
2023-04-12T21:17:40.898Z,1.07
2023-04-12T21:20:13.383Z,1.20
2023-04-12T21:22:43.256Z,1.30
2023-04-12T21:25:16.218Z,1.00
2023-04-12T21:27:44.888Z,1.30
2023-04-12T21:30:13.773Z,0.70
2023-04-12T21:32:42.749Z,1.23
2023-04-12T21:35:11.331Z,1.10
2023-04-12T21:37:39.956Z,1.03
2023-04-12T21:40:09.837Z,0.80
2023-04-12T21:42:40.163Z,0.97
2023-04-12T21:45:09.658Z,0.80
2023-04-12T21:47:39.881Z,1.93
2023-04-12T21:50:09.784Z,0.90
2023-04-12T21:52:38.110Z,1.33
2023-04-12T21:55:06.827Z,1.07
2023-04-12T21:57:38.852Z,0.80
2023-04-12T22:00:09.876Z,0.90
2023-04-12T22:02:41.448Z,0.80
2023-04-12T22:05:10.058Z,0.90
2023-04-12T22:07:40.977Z,0.60
2023-04-12T22:10:11.892Z,1.20
2023-04-12T22:12:41.313Z,0.83
2023-04-12T22:15:11.716Z,0.70
2023-04-12T22:17:40.710Z,1.10
2023-04-12T22:20:10.813Z,0.90
2023-04-12T22:22:38.805Z,0.70
2023-04-12T22:25:11.793Z,0.97
2023-04-12T22:27:41.182Z,0.60
2023-04-12T22:30:11.508Z,0.70
2023-04-12T22:32:39.957Z,0.77
2023-04-12T22:35:09.812Z,0.80
2023-04-12T22:37:38.968Z,0.90
2023-04-12T22:40:11.733Z,0.90
2023-04-12T22:42:46.035Z,1.07
2023-04-12T22:45:14.335Z,0.80
2023-04-12T22:47:42.951Z,0.70
2023-04-12T22:50:12.662Z,0.60
2023-04-12T22:52:41.779Z,0.60
2023-04-12T22:55:12.539Z,0.60
2023-04-12T22:57:42.102Z,0.70
2023-04-12T23:00:14.963Z,0.70
2023-04-12T23:02:45.997Z,0.60
2023-04-12T23:05:14.507Z,0.50
2023-04-12T23:07:43.478Z,0.70
2023-04-12T23:10:12.103Z,0.80
2023-04-12T23:12:41.540Z,1.03
2023-04-12T23:15:10.595Z,0.80
2023-04-12T23:17:38.542Z,0.70
2023-04-12T23:20:12.869Z,0.83
2023-04-12T23:22:56.570Z,0.60
2023-04-12T23:25:37.617Z,0.60
2023-04-12T23:28:12.524Z,0.60
2023-04-12T23:30:42.887Z,0.90
2023-04-12T23:33:11.986Z,0.70
2023-04-12T23:35:41.520Z,1.00
2023-04-12T23:38:10.461Z,0.70
2023-04-12T23:40:38.393Z,0.60
2023-04-12T23:43:08.908Z,0.60
2023-04-12T23:45:36.952Z,0.70
2023-04-12T23:48:06.862Z,0.70
2023-04-12T23:50:34.978Z,0.57
2023-04-12T23:53:03.630Z,0.60
2023-04-12T23:55:31.706Z,0.60
2023-04-12T23:57:59.684Z,0.90
